Time;durP1;ratioP1;P1;durP2;ratioP2;P2;SDS_P1;SDS_P2;PMS_P1;PMS_P2;Temp;Humidity;BMP_temperature;BMP_pressure;BME280_temperature;BME280_humidity;BME280_pressure;Samples;Min_cycle;Max_cycle;Signal;HPM_P1;HPM_P2
2023/08/10 00:00:06;;;;;;;4.20;1.20;;;;;;;21.56;50.30;102034.56;4999928;28;20056;-72
2023/08/10 00:02:32;;;;;;;3.92;1.30;;;;;;;21.57;50.40;102032.78;5000796;28;20079;-73
2023/08/10 00:04:57;;;;;;;3.05;1.20;;;;;;;21.56;50.82;102031.06;5000729;28;20034;-71
2023/08/10 00:07:22;;;;;;;2.60;1.13;;;;;;;21.56;50.75;102033.72;5000259;28;20216;-72
2023/08/10 00:09:47;;;;;;;2.53;1.23;;;;;;;21.56;50.36;102039.03;5000918;28;20116;-71
2023/08/10 00:12:13;;;;;;;2.63;1.20;;;;;;;21.54;50.41;102044.47;5000941;28;20037;-72
2023/08/10 00:14:38;;;;;;;3.80;1.33;;;;;;;21.55;50.77;102037.34;4998415;28;20478;-71
2023/08/10 00:17:03;;;;;;;3.13;1.30;;;;;;;21.53;50.70;102032.16;5000636;28;20140;-71
2023/08/10 00:19:29;;;;;;;2.50;1.20;;;;;;;21.54;50.53;102033.84;5001127;28;20065;-71
2023/08/10 00:21:54;;;;;;;3.10;1.20;;;;;;;21.54;50.83;102038.31;5000248;28;20608;-72
2023/08/10 00:24:19;;;;;;;2.33;1.10;;;;;;;21.53;50.89;102037.44;5000930;28;20030;-71
2023/08/10 00:26:45;;;;;;;3.83;1.30;;;;;;;21.54;50.78;102048.94;4999949;28;20034;-72
2023/08/10 00:29:10;;;;;;;2.47;1.27;;;;;;;21.53;50.36;102048.06;5000211;28;20545;-71
2023/08/10 00:31:35;;;;;;;2.47;1.20;;;;;;;21.52;50.53;102045.53;5000281;28;20033;-72
2023/08/10 00:34:01;;;;;;;3.10;1.40;;;;;;;21.52;50.51;102043.75;5000205;28;20310;-71
2023/08/10 00:36:26;;;;;;;3.60;1.10;;;;;;;21.52;50.71;102046.38;4999820;28;20124;-71
2023/08/10 00:38:51;;;;;;;3.83;1.30;;;;;;;21.52;50.78;102048.19;5000607;28;20394;-71
2023/08/10 00:41:17;;;;;;;4.43;1.70;;;;;;;21.51;50.97;102052.66;5000037;28;20042;-72
2023/08/10 00:43:42;;;;;;;3.65;1.38;;;;;;;21.52;50.89;102046.38;4999794;28;20030;-71
2023/08/10 00:46:11;;;;;;;2.30;1.02;;;;;;;21.51;50.59;102038.56;4999720;28;20131;-71
2023/08/10 00:48:36;;;;;;;3.47;1.38;;;;;;;21.51;50.83;102039.38;4999561;28;20064;-72
2023/08/10 00:51:02;;;;;;;4.28;1.30;;;;;;;21.51;50.58;102039.38;4999870;28;20499;-71
2023/08/10 00:53:27;;;;;;;4.10;1.25;;;;;;;21.49;50.91;102036.03;5000015;28;20438;-71
2023/08/10 00:55:55;;;;;;;2.70;1.20;;;;;;;21.49;50.78;102037.81;5000364;28;20029;-71
2023/08/10 00:58:21;;;;;;;2.53;1.20;;;;;;;21.49;50.61;102032.50;4999601;28;20502;-72
2023/08/10 01:00:47;;;;;;;3.17;1.30;;;;;;;21.48;50.46;102034.31;4999672;28;20037;-72
2023/08/10 01:03:13;;;;;;;4.63;1.52;;;;;;;21.47;50.60;102035.22;5000519;28;20054;-71
2023/08/10 01:06:01;;;;;;;2.45;1.20;;;;;;;21.47;50.58;102037.06;4999662;28;20113;-71
2023/08/10 01:08:49;;;;;;;3.22;1.30;;;;;;;21.48;50.54;102046.72;4999872;28;20045;-72
2023/08/10 01:11:23;;;;;;;3.03;1.40;;;;;;;21.48;50.55;102047.56;4998848;28;20835;-73
2023/08/10 01:14:13;;;;;;;3.30;1.40;;;;;;;21.46;50.53;102043.31;5003637;28;20042;-71
2023/08/10 01:16:42;;;;;;;3.58;1.33;;;;;;;21.47;50.71;102039.72;5001605;28;20084;-71
2023/08/10 01:19:23;;;;;;;3.00;1.42;;;;;;;21.45;50.56;102041.63;5003164;28;20096;-71
2023/08/10 01:22:18;;;;;;;3.35;1.60;;;;;;;21.46;50.62;102043.31;5001930;28;20483;-71
2023/08/10 01:24:44;;;;;;;4.53;1.63;;;;;;;21.47;50.49;102039.72;5002611;28;20025;-71
2023/08/10 01:27:13;;;;;;;3.47;1.30;;;;;;;21.44;50.47;102040.78;5003739;28;20402;-72
2023/08/10 01:29:40;;;;;;;3.92;1.52;;;;;;;21.45;50.61;102044.28;5003026;28;20057;-71
2023/08/10 01:32:12;;;;;;;3.35;1.40;;;;;;;21.43;50.89;102043.53;5003072;28;20037;-71
2023/08/10 01:34:37;;;;;;;3.13;1.20;;;;;;;21.43;50.69;102047.06;5003523;28;20057;-71
2023/08/10 01:37:03;;;;;;;3.70;1.50;;;;;;;21.43;50.56;102038.25;5003383;28;20487;-71
2023/08/10 01:39:29;;;;;;;4.10;1.58;;;;;;;21.44;50.88;102043.44;5003141;28;20140;-71
2023/08/10 01:41:54;;;;;;;4.97;1.52;;;;;;;21.43;50.45;102038.25;5002961;28;20116;-71
2023/08/10 01:44:19;;;;;;;4.28;1.40;;;;;;;21.42;50.85;102045.34;5002352;28;20891;-71
2023/08/10 01:46:47;;;;;;;3.63;1.65;;;;;;;21.42;50.42;102042.72;5001858;28;20036;-71
2023/08/10 01:49:14;;;;;;;3.30;1.70;;;;;;;21.42;50.79;102049.81;5003015;28;20033;-71
2023/08/10 01:51:43;;;;;;;3.55;1.50;;;;;;;21.41;50.76;102042.81;5002823;28;20064;-71
2023/08/10 01:54:09;;;;;;;3.13;1.38;;;;;;;21.42;50.53;102041.88;5002836;28;20057;-70
2023/08/10 01:56:35;;;;;;;4.22;1.60;;;;;;;21.41;50.80;102048.97;5002901;28;20034;-72
2023/08/10 01:59:00;;;;;;;3.35;1.48;;;;;;;21.42;50.67;102040.06;5002719;28;20557;-71
2023/08/10 02:01:26;;;;;;;3.72;1.67;;;;;;;21.41;50.73;102050.78;5001722;28;20025;-70
2023/08/10 02:03:51;;;;;;;3.60;1.48;;;;;;;21.42;50.48;102049.81;5002731;28;20491;-71
2023/08/10 02:06:17;;;;;;;4.22;1.38;;;;;;;21.41;50.30;102053.44;5001310;28;20029;-72
2023/08/10 02:08:42;;;;;;;3.58;1.45;;;;;;;21.41;50.73;102051.63;5001864;28;20053;-72
2023/08/10 02:11:07;;;;;;;4.20;1.48;;;;;;;21.40;50.87;102059.72;5001415;28;20292;-71
2023/08/10 02:13:33;;;;;;;3.70;1.65;;;;;;;21.40;50.38;102055.25;5002674;28;20029;-72
2023/08/10 02:15:58;;;;;;;4.38;1.50;;;;;;;21.40;50.47;102049.13;5001783;28;20037;-70
2023/08/10 02:18:23;;;;;;;3.50;1.50;;;;;;;21.40;50.51;102049.94;5002859;28;20026;-72
2023/08/10 02:20:49;;;;;;;3.17;1.55;;;;;;;21.40;50.91;102054.41;5000973;28;20033;-71
2023/08/10 02:23:14;;;;;;;3.63;1.42;;;;;;;21.40;50.79;102059.72;5002717;28;20034;-72
2023/08/10 02:25:40;;;;;;;3.13;1.40;;;;;;;21.38;50.51;102059.84;5000690;28;20129;-71
2023/08/10 02:28:06;;;;;;;3.55;1.40;;;;;;;21.37;50.46;102058.97;5001814;28;20111;-72
2023/08/10 02:30:31;;;;;;;3.70;1.52;;;;;;;21.37;50.42;102056.31;5002441;28;20034;-72
2023/08/10 02:32:57;;;;;;;3.95;1.48;;;;;;;21.36;50.66;102059.94;5002064;28;20026;-72
2023/08/10 02:35:22;;;;;;;3.78;1.35;;;;;;;21.37;50.46;102056.31;5001211;28;20064;-71
2023/08/10 02:37:48;;;;;;;3.15;1.40;;;;;;;21.37;50.60;102056.31;5001745;28;20041;-72
2023/08/10 02:40:18;;;;;;;3.85;1.55;;;;;;;21.36;50.63;102057.28;5002200;28;20038;-72
2023/08/10 02:42:44;;;;;;;3.40;1.48;;;;;;;21.36;50.30;102057.28;5001522;28;20122;-71
2023/08/10 02:45:10;;;;;;;3.58;1.50;;;;;;;21.35;50.54;102060.91;5001671;28;20037;-72
2023/08/10 02:47:35;;;;;;;4.32;1.55;;;;;;;21.34;50.39;102051.25;5002367;28;20033;-72
2023/08/10 02:50:02;;;;;;;3.53;1.42;;;;;;;21.34;50.12;102059.19;5000910;28;20120;-72
2023/08/10 02:52:27;;;;;;;3.95;1.63;;;;;;;21.34;50.30;102056.53;5001635;28;20099;-73
2023/08/10 02:54:53;;;;;;;4.38;1.58;;;;;;;21.34;50.24;102058.38;5001857;28;20522;-71
2023/08/10 02:57:18;;;;;;;4.00;1.63;;;;;;;21.35;50.28;102060.06;5001146;28;20422;-72
2023/08/10 02:59:44;;;;;;;4.72;1.70;;;;;;;21.34;50.22;102058.38;5001902;28;20034;-71
2023/08/10 03:02:09;;;;;;;3.75;1.58;;;;;;;21.34;50.36;102063.66;5001570;28;20030;-72
2023/08/10 03:04:34;;;;;;;3.03;1.38;;;;;;;21.34;50.55;102063.66;5000819;28;20049;-71
2023/08/10 03:07:00;;;;;;;3.33;1.50;;;;;;;21.33;50.17;102060.19;5001162;28;20100;-71
2023/08/10 03:09:26;;;;;;;5.20;1.70;;;;;;;21.32;50.13;102069.09;5001918;28;20383;-72
2023/08/10 03:11:51;;;;;;;3.70;1.52;;;;;;;21.32;50.28;102065.59;5015590;28;20033;-72
2023/08/10 03:14:17;;;;;;;3.08;1.55;;;;;;;21.32;50.09;102065.59;5001491;28;20057;-71
2023/08/10 03:16:42;;;;;;;4.22;1.65;;;;;;;21.32;50.57;102071.75;5000865;28;20077;-72
2023/08/10 03:19:07;;;;;;;3.83;1.48;;;;;;;21.32;50.42;102074.38;5001008;28;20117;-71
2023/08/10 03:21:32;;;;;;;4.40;1.60;;;;;;;21.31;50.15;102067.38;5001256;28;20072;-72
2023/08/10 03:23:58;;;;;;;3.60;1.80;;;;;;;21.31;50.35;102070.03;5000544;28;20037;-72
2023/08/10 03:26:23;;;;;;;4.72;1.60;;;;;;;21.30;50.16;102073.66;5000750;28;20029;-72
2023/08/10 03:28:48;;;;;;;3.85;1.90;;;;;;;21.28;50.31;102070.25;5001258;28;20096;-71
2023/08/10 03:31:14;;;;;;;3.47;1.50;;;;;;;21.30;50.33;102068.38;5000850;28;20800;-72
2023/08/10 03:33:40;;;;;;;3.20;1.50;;;;;;;21.29;50.10;102065.84;5001345;28;20034;-71
2023/08/10 03:36:06;;;;;;;4.38;1.60;;;;;;;21.29;50.26;102061.38;5001418;28;20092;-71
2023/08/10 03:38:31;;;;;;;3.33;1.70;;;;;;;21.27;50.31;102050.03;5000862;28;20034;-72
2023/08/10 03:40:56;;;;;;;3.42;1.75;;;;;;;21.28;50.32;102058.81;5001104;28;20113;-72
2023/08/10 03:43:22;;;;;;;4.03;2.30;;;;;;;21.28;50.21;102054.34;5001106;28;20174;-71
2023/08/10 03:45:47;;;;;;;4.22;1.52;;;;;;;21.28;49.88;102064.97;5013658;28;20158;-72
2023/08/10 03:48:12;;;;;;;3.50;1.70;;;;;;;21.27;49.94;102060.63;5001580;28;20033;-72
2023/08/10 03:50:37;;;;;;;3.35;1.60;;;;;;;21.27;50.26;102062.44;5000952;28;20498;-71
2023/08/10 03:53:03;;;;;;;3.08;1.50;;;;;;;21.27;50.17;102067.72;5000721;28;20030;-71
2023/08/10 03:55:28;;;;;;;3.47;1.60;;;;;;;21.27;50.38;102067.72;5000871;28;20490;-71
2023/08/10 03:57:54;;;;;;;4.32;1.80;;;;;;;21.27;50.25;102073.03;5000484;28;20087;-72
2023/08/10 04:00:21;;;;;;;3.85;1.48;;;;;;;21.26;49.91;102063.41;5000185;28;20084;-70
2023/08/10 04:02:47;;;;;;;4.15;1.70;;;;;;;21.26;50.18;102066.06;5000565;28;20046;-71
2023/08/10 04:05:12;;;;;;;4.85;1.58;;;;;;;21.26;49.85;102069.53;5016014;28;20042;-71
2023/08/10 04:07:38;;;;;;;3.53;1.58;;;;;;;21.26;49.98;102074.84;4999988;28;20044;-71
2023/08/10 04:10:05;;;;;;;4.75;1.90;;;;;;;21.26;50.32;102074.00;5000833;28;20921;-71
2023/08/10 04:12:32;;;;;;;2.95;1.45;;;;;;;21.25;50.02;102074.97;5001001;28;20125;-70
2023/08/10 04:14:58;;;;;;;3.67;1.63;;;;;;;21.24;50.22;102082.09;4999682;28;20140;-71
2023/08/10 04:17:23;;;;;;;3.58;1.60;;;;;;;21.24;49.95;102078.56;5000744;28;20550;-72
2023/08/10 04:19:48;;;;;;;3.95;1.50;;;;;;;21.24;50.28;102079.44;5000712;28;20034;-71
2023/08/10 04:22:14;;;;;;;4.25;1.60;;;;;;;21.24;49.74;102078.56;5000191;28;20033;-71
2023/08/10 04:24:39;;;;;;;4.53;1.73;;;;;;;21.24;50.15;102078.56;5000009;28;20030;-72
2023/08/10 04:27:05;;;;;;;3.67;1.58;;;;;;;21.23;50.10;102085.69;4999143;28;20033;-71
2023/08/10 04:29:32;;;;;;;5.82;2.45;;;;;;;21.23;49.87;102083.03;4999760;28;20060;-71
2023/08/10 04:31:57;;;;;;;4.88;1.95;;;;;;;21.24;50.14;102083.88;4998713;28;20030;-72
2023/08/10 04:34:22;;;;;;;3.60;1.52;;;;;;;21.23;50.28;102084.84;5000178;28;20387;-71
2023/08/10 04:36:47;;;;;;;4.10;1.80;;;;;;;21.23;49.81;102090.16;5000023;28;20174;-72
2023/08/10 04:39:13;;;;;;;3.05;1.50;;;;;;;21.22;50.24;102085.78;5000594;28;20026;-71
2023/08/10 04:41:38;;;;;;;4.18;1.60;;;;;;;21.21;50.16;102092.91;4999167;28;20037;-71
2023/08/10 04:44:04;;;;;;;4.85;1.88;;;;;;;21.22;49.80;102093.75;5001604;28;20029;-71
2023/08/10 04:46:29;;;;;;;5.05;1.65;;;;;;;21.22;50.05;102101.69;5003337;28;20069;-71
2023/08/10 04:48:55;;;;;;;4.53;1.83;;;;;;;21.20;50.13;102102.69;5003407;28;20030;-71
2023/08/10 04:51:20;;;;;;;4.82;1.55;;;;;;;21.21;49.90;102103.50;5003897;28;20048;-72
2023/08/10 04:53:45;;;;;;;3.72;1.52;;;;;;;21.20;50.09;102102.69;5004033;28;20022;-71
2023/08/10 04:56:11;;;;;;;3.72;1.80;;;;;;;21.21;49.99;102106.16;5003389;28;20041;-71
2023/08/10 04:58:36;;;;;;;3.30;1.58;;;;;;;21.20;50.37;102101.81;5003735;28;20526;-72
2023/08/10 05:01:02;;;;;;;3.45;1.58;;;;;;;21.21;49.99;102103.50;5003938;28;20029;-71
2023/08/10 05:03:27;;;;;;;3.63;1.70;;;;;;;21.20;50.09;102101.81;5002455;28;20473;-72
2023/08/10 05:05:53;;;;;;;4.80;1.77;;;;;;;21.20;49.91;102102.69;5003214;28;20095;-71
2023/08/10 05:08:18;;;;;;;3.90;1.65;;;;;;;21.20;50.28;102102.69;5018996;28;20040;-72
2023/08/10 05:10:45;;;;;;;3.47;1.70;;;;;;;21.18;50.31;102109.88;5017891;28;20034;-71
2023/08/10 05:13:10;;;;;;;3.17;1.60;;;;;;;21.19;50.36;102100.16;5003505;28;20030;-71
2023/08/10 05:15:35;;;;;;;3.25;1.75;;;;;;;21.18;50.31;102096.63;5002140;28;20038;-70
2023/08/10 05:18:02;;;;;;;5.65;2.05;;;;;;;21.19;50.17;102106.28;5002313;28;20034;-72
2023/08/10 05:20:27;;;;;;;4.22;2.05;;;;;;;21.18;50.25;102101.94;5004151;28;20041;-70
2023/08/10 05:22:53;;;;;;;4.03;2.10;;;;;;;21.19;50.49;102097.50;5003094;28;20038;-71
2023/08/10 05:25:18;;;;;;;3.42;1.88;;;;;;;21.18;50.66;102103.75;5003401;28;20037;-71
2023/08/10 05:27:43;;;;;;;4.45;1.92;;;;;;;21.19;50.77;102105.44;5002758;28;20522;-70
2023/08/10 05:30:11;;;;;;;4.55;2.28;;;;;;;21.19;50.44;102108.09;5004114;28;20105;-71
2023/08/10 05:32:39;;;;;;;4.20;2.25;;;;;;;21.19;50.66;102108.09;5002458;28;20034;-71
2023/08/10 05:35:06;;;;;;;4.93;2.20;;;;;;;21.18;50.61;102109.03;5003301;28;20038;-70
2023/08/10 05:37:32;;;;;;;4.43;2.13;;;;;;;21.18;50.47;102098.44;5003305;28;20030;-72
2023/08/10 05:39:59;;;;;;;5.03;2.75;;;;;;;21.17;50.48;102096.75;5001731;28;20029;-70
2023/08/10 05:42:25;;;;;;;6.72;2.70;;;;;;;21.17;50.87;102097.59;5002838;28;20783;-71
2023/08/10 05:44:50;;;;;;;4.30;2.53;;;;;;;21.17;50.37;102096.75;5017358;28;20030;-71
2023/08/10 05:47:16;;;;;;;4.60;3.05;;;;;;;21.18;50.51;102095.78;5003071;28;20025;-71
2023/08/10 05:49:41;;;;;;;6.03;2.90;;;;;;;21.18;50.51;102095.78;5002784;28;20056;-71
2023/08/10 05:52:06;;;;;;;5.90;2.78;;;;;;;21.17;50.77;102096.75;5002299;28;20062;-72
2023/08/10 05:54:32;;;;;;;4.53;2.60;;;;;;;21.19;50.87;102097.50;5003107;28;20120;-72
2023/08/10 05:56:57;;;;;;;5.35;2.50;;;;;;;21.18;50.75;102090.50;5000873;28;20080;-71
2023/08/10 05:59:22;;;;;;;5.57;2.15;;;;;;;21.18;50.96;102095.78;5001527;28;20037;-72
2023/08/10 06:01:47;;;;;;;5.10;2.40;;;;;;;21.18;51.13;102101.09;5001963;28;20033;-71
2023/08/10 06:04:14;;;;;;;4.78;2.08;;;;;;;21.17;51.01;102094.09;5000949;28;20050;-72
2023/08/10 06:06:39;;;;;;;4.05;2.00;;;;;;;21.17;50.94;102099.41;5000078;28;20045;-72
2023/08/10 06:09:08;;;;;;;4.07;2.17;;;;;;;21.16;51.09;102098.56;5002507;28;20406;-72
2023/08/10 06:11:33;;;;;;;4.38;2.25;;;;;;;21.17;50.88;102100.25;5001957;28;20029;-69
2023/08/10 06:13:59;;;;;;;4.95;2.10;;;;;;;21.17;51.13;102100.25;5001900;28;20084;-69
2023/08/10 06:16:25;;;;;;;4.45;1.88;;;;;;;21.19;51.03;102094.84;5002751;28;20034;-72
2023/08/10 06:18:51;;;;;;;4.10;2.17;;;;;;;21.22;50.99;102096.41;5002170;28;20129;-71
2023/08/10 06:21:18;;;;;;;5.13;2.20;;;;;;;21.22;51.32;102097.28;5001597;28;20123;-72
2023/08/10 06:23:43;;;;;;;5.07;2.20;;;;;;;21.22;51.57;102097.28;5001976;28;20045;-73
2023/08/10 06:26:09;;;;;;;4.95;2.20;;;;;;;21.20;51.80;102097.38;5000427;28;20026;-71
2023/08/10 06:28:35;;;;;;;7.18;2.10;;;;;;;21.23;51.73;102103.41;5001954;28;20033;-73
2023/08/10 06:31:00;;;;;;;4.20;2.30;;;;;;;21.21;52.05;102100.88;5001755;28;20037;-71
2023/08/10 06:33:26;;;;;;;4.10;1.85;;;;;;;21.23;51.79;102106.06;5002726;28;20176;-71
2023/08/10 06:35:52;;;;;;;4.40;2.08;;;;;;;21.21;51.96;102103.50;5001409;28;20034;-71
2023/08/10 06:38:18;;;;;;;4.13;2.10;;;;;;;21.20;51.92;102104.47;5002280;28;20561;-69
2023/08/10 06:40:44;;;;;;;5.28;2.00;;;;;;;21.19;52.07;102097.50;5000311;28;20033;-72
2023/08/10 06:43:09;;;;;;;4.03;1.90;;;;;;;21.19;52.51;102098.31;5000918;28;20124;-71
2023/08/10 06:45:34;;;;;;;5.15;1.98;;;;;;;21.22;52.16;102099.06;5002217;28;20076;-71
2023/08/10 06:48:00;;;;;;;14.65;3.95;;;;;;;21.23;52.40;102096.28;5000804;28;20611;-71
2023/08/10 06:50:25;;;;;;;6.00;2.00;;;;;;;21.25;52.51;102096.16;5001583;28;20038;-72
2023/08/10 06:52:51;;;;;;;4.93;1.92;;;;;;;21.25;52.63;102094.34;5001412;28;20084;-72
2023/08/10 06:55:17;;;;;;;4.75;1.88;;;;;;;21.25;52.85;102090.88;5001248;28;20038;-72
2023/08/10 06:57:44;;;;;;;3.78;1.83;;;;;;;21.26;52.52;102088.09;5016142;28;20060;-73
2023/08/10 07:00:13;;;;;;;4.05;2.20;;;;;;;21.25;52.48;102093.53;5001920;28;20041;-71
2023/08/10 07:02:39;;;;;;;5.13;2.40;;;;;;;21.26;52.71;102087.28;5000801;28;20086;-72
2023/08/10 07:05:05;;;;;;;4.75;2.13;;;;;;;21.27;52.60;102088.94;5002023;28;20065;-72
2023/08/10 07:07:31;;;;;;;7.05;2.83;;;;;;;21.28;52.94;102088.00;5000900;28;20030;-72
2023/08/10 07:09:56;;;;;;;4.78;1.90;;;;;;;21.28;52.94;102091.47;5001079;28;20088;-72
2023/08/10 07:12:21;;;;;;;4.55;2.00;;;;;;;21.29;52.95;102087.88;5001651;28;20030;-73
2023/08/10 07:14:46;;;;;;;7.45;2.10;;;;;;;21.30;52.88;102084.28;5001667;28;20034;-72
2023/08/10 07:17:12;;;;;;;3.90;2.08;;;;;;;21.30;52.65;102084.28;5000955;28;20302;-72
2023/08/10 07:19:37;;;;;;;4.95;2.20;;;;;;;21.28;52.70;102085.34;5001344;28;20128;-72
2023/08/10 07:22:03;;;;;;;6.43;3.00;;;;;;;21.28;53.75;102086.19;5001029;28;20406;-72
2023/08/10 07:24:28;;;;;;;8.35;2.70;;;;;;;21.29;54.22;102089.69;5000926;28;20034;-72
2023/08/10 07:26:56;;;;;;;4.88;2.35;;;;;;;21.28;54.46;102086.19;5001004;28;20061;-72
2023/08/10 07:29:23;;;;;;;6.28;2.28;;;;;;;21.32;54.75;102092.13;5001080;28;20380;-70
2023/08/10 07:31:48;;;;;;;7.80;2.70;;;;;;;21.32;54.80;102092.94;5000658;28;20048;-71
2023/08/10 07:34:14;;;;;;;5.57;2.30;;;;;;;21.35;54.69;102091.88;4996801;28;20034;-74
2023/08/10 07:36:39;;;;;;;5.82;2.10;;;;;;;21.37;54.70;102092.59;4999666;28;20034;-72
2023/08/10 07:39:05;;;;;;;6.20;2.10;;;;;;;21.40;54.55;102089.72;4996893;28;20030;-72
2023/08/10 07:41:30;;;;;;;5.63;1.98;;;;;;;21.39;54.62;102093.31;4999182;28;20034;-74
2023/08/10 07:43:55;;;;;;;7.82;2.10;;;;;;;21.39;54.36;102088.03;4998900;28;20034;-72
2023/08/10 07:46:21;;;;;;;5.05;2.20;;;;;;;21.42;54.54;102090.44;4997262;28;20112;-73
2023/08/10 07:48:46;;;;;;;5.07;1.92;;;;;;;21.40;54.83;102088.88;4998883;28;20045;-70
2023/08/10 07:51:12;;;;;;;4.28;1.85;;;;;;;21.43;54.61;102093.94;4998107;28;20030;-74
2023/08/10 07:53:37;;;;;;;6.55;1.90;;;;;;;21.42;54.55;102089.59;4998646;28;20172;-72
2023/08/10 07:56:03;;;;;;;5.72;1.77;;;;;;;21.43;54.34;102091.28;4998756;28;20037;-72
2023/08/10 07:58:29;;;;;;;5.00;1.88;;;;;;;21.43;54.61;102094.78;4998495;28;20065;-75
2023/08/10 08:00:54;;;;;;;5.03;1.98;;;;;;;21.47;53.88;102096.25;4997848;28;20034;-70
2023/08/10 08:03:21;;;;;;;5.60;2.05;;;;;;;21.49;54.08;102091.72;4999221;28;20050;-72
2023/08/10 08:05:46;;;;;;;4.50;1.80;;;;;;;21.51;54.16;102097.72;4998166;28;20037;-75
2023/08/10 08:08:12;;;;;;;6.70;2.13;;;;;;;21.52;54.23;102096.78;4999505;28;20084;-70
2023/08/10 08:10:37;;;;;;;5.95;1.90;;;;;;;21.57;53.89;102091.13;4999169;28;20257;-73
2023/08/10 08:13:03;;;;;;;4.95;2.10;;;;;;;21.58;53.82;102090.16;4998500;28;20577;-71
2023/08/10 08:15:29;;;;;;;4.57;1.88;;;;;;;21.59;54.01;102093.63;4998951;28;20459;-71
2023/08/10 08:18:34;;;;;;;4.18;2.00;;;;;;;21.58;53.89;102092.81;4997719;28;20343;-79
2023/08/10 08:21:00;;;;;;;5.93;2.20;;;;;;;21.61;53.47;102095.22;5002668;28;20033;-73
2023/08/10 08:23:25;;;;;;;6.65;1.95;;;;;;;21.62;53.60;102093.41;5002739;28;20038;-79
2023/08/10 08:25:50;;;;;;;5.32;2.10;;;;;;;21.58;53.07;102089.31;5002724;28;20033;-70
2023/08/10 08:28:16;;;;;;;4.65;2.15;;;;;;;21.58;53.48;102084.84;5002002;28;20037;-76
2023/08/10 08:30:41;;;;;;;4.28;2.17;;;;;;;21.59;54.01;102096.28;5002486;28;20038;-70
2023/08/10 08:33:06;;;;;;;4.93;2.00;;;;;;;21.59;53.73;102094.50;5002468;28;20061;-76
2023/08/10 08:35:31;;;;;;;6.50;2.15;;;;;;;21.60;53.72;102098.81;5002392;28;20187;-70
2023/08/10 08:37:57;;;;;;;5.68;2.25;;;;;;;21.59;53.19;102099.81;5003322;28;20353;-73
2023/08/10 08:40:22;;;;;;;5.28;1.80;;;;;;;21.57;51.95;102096.44;5003255;28;20037;-70
2023/08/10 08:42:48;;;;;;;5.53;1.77;;;;;;;21.59;52.89;102101.59;5001909;28;20038;-72
2023/08/10 08:45:15;;;;;;;5.97;2.05;;;;;;;21.60;52.76;102101.47;5002939;28;20041;-73
2023/08/10 08:47:43;;;;;;;4.75;1.80;;;;;;;21.62;53.17;102093.41;5001156;28;20038;-69
2023/08/10 08:50:09;;;;;;;4.90;2.00;;;;;;;21.63;52.87;102095.09;5002330;28;20033;-70
2023/08/10 08:52:34;;;;;;;5.20;1.88;;;;;;;21.64;52.30;102108.25;5002784;28;20041;-71
2023/08/10 08:55:02;;;;;;;4.70;1.90;;;;;;;21.63;52.18;102103.06;5000911;28;20383;-69
2023/08/10 08:57:28;;;;;;;5.70;2.38;;;;;;;21.63;53.38;102103.06;5002949;28;20041;-70
2023/08/10 08:59:53;;;;;;;5.60;2.00;;;;;;;21.62;53.40;102101.38;5002851;28;20033;-69
2023/08/10 09:02:18;;;;;;;4.93;2.17;;;;;;;21.58;53.47;102100.75;5007428;28;20288;-72
2023/08/10 09:04:44;;;;;;;5.32;2.00;;;;;;;21.58;53.53;102090.16;5004506;28;20029;-68
2023/08/10 09:07:09;;;;;;;6.30;3.08;;;;;;;21.61;53.40;102089.09;5002164;28;20029;-76
2023/08/10 09:09:35;;;;;;;5.85;2.00;;;;;;;21.61;53.05;102084.63;5002093;28;20044;-68
2023/08/10 09:12:30;;;;;;;8.18;2.10;;;;;;;21.60;53.40;102071.47;5002978;28;20116;-69
2023/08/10 09:15:30;;;;;;;;;;;;;;;21.65;53.25;102079.91;5003174;28;20109;-76
2023/08/10 09:17:56;;;;;;;4.75;1.90;;;;;;;21.65;53.03;102077.25;5001282;28;20388;-76
2023/08/10 09:20:27;;;;;;;5.18;2.05;;;;;;;21.62;53.21;102083.66;5002061;28;20036;-69
2023/08/10 09:22:56;;;;;;;4.80;2.10;;;;;;;21.66;53.16;102077.13;4983057;28;20124;-71
2023/08/10 09:25:22;;;;;;;4.00;1.92;;;;;;;21.62;53.44;102077.50;4991936;28;20045;-71
2023/08/10 09:27:49;;;;;;;4.68;1.80;;;;;;;21.60;53.62;102082.06;4989874;28;20037;-70
2023/08/10 09:30:16;;;;;;;4.35;1.75;;;;;;;21.60;53.64;102079.44;4997630;28;20033;-72
2023/08/10 09:32:42;;;;;;;4.22;1.80;;;;;;;21.63;53.42;102074.72;5001711;28;20042;-69
2023/08/10 09:35:15;;;;;;;3.70;1.58;;;;;;;21.66;53.49;102076.31;5001720;28;20116;-68
2023/08/10 09:44:24;;;;;;;5.90;2.10;;;;;;;21.64;53.37;102079.06;5044361;23;20080;-71
2023/08/10 09:46:58;;;;;;;4.03;1.85;;;;;;;21.70;53.21;102075.94;5007645;28;20037;-67
2023/08/10 09:49:24;;;;;;;3.40;1.60;;;;;;;21.81;53.02;102076.91;5006691;28;20058;-70
2023/08/10 09:51:49;;;;;;;3.60;1.60;;;;;;;21.84;52.60;102076.69;5008436;28;20080;-70
2023/08/10 09:54:15;;;;;;;5.63;1.70;;;;;;;21.85;52.49;102073.06;5007693;28;20030;-71
2023/08/10 09:56:41;;;;;;;4.68;1.83;;;;;;;21.82;52.51;102062.69;5008390;28;20076;-68
2023/08/10 09:59:06;;;;;;;4.15;1.67;;;;;;;21.83;52.50;102075.00;5006060;28;20072;-67
2023/08/10 10:01:32;;;;;;;4.10;1.90;;;;;;;21.76;52.98;102076.44;5006908;28;20074;-68
2023/08/10 10:03:58;;;;;;;4.88;1.70;;;;;;;21.72;52.88;102073.19;5007896;28;20038;-69
2023/08/10 10:06:24;;;;;;;4.45;1.83;;;;;;;21.72;53.06;102076.66;5008415;28;20523;-70
2023/08/10 10:08:56;;;;;;;4.00;1.75;;;;;;;21.69;53.22;102079.56;5006255;28;20045;-70
2023/08/10 10:11:21;;;;;;;5.63;2.03;;;;;;;21.69;53.52;102071.59;5007727;28;20045;-68
2023/08/10 10:13:47;;;;;;;4.57;1.70;;;;;;;21.71;53.38;102075.00;5008778;28;20097;-66
2023/08/10 10:16:12;;;;;;;5.60;1.88;;;;;;;21.73;53.65;102080.19;5007464;28;20034;-70
2023/08/10 10:18:39;;;;;;;3.15;1.60;;;;;;;21.76;53.54;102087.03;5008266;28;20030;-68
2023/08/10 10:21:04;;;;;;;4.63;1.70;;;;;;;21.80;53.23;102091.16;5007338;28;20462;-68
2023/08/10 10:23:30;;;;;;;3.55;1.60;;;;;;;21.81;53.46;102092.84;5006302;28;20049;-69
2023/08/10 10:26:00;;;;;;;4.20;1.45;;;;;;;21.84;53.50;102096.13;5007400;28;20040;-69
2023/08/10 10:28:30;;;;;;;3.95;1.70;;;;;;;21.84;53.26;102085.50;5006694;28;20048;-70
2023/08/10 10:31:06;;;;;;;2.53;1.33;;;;;;;21.86;53.35;102086.22;5007286;28;20041;-70
2023/08/10 10:33:32;;;;;;;3.50;1.48;;;;;;;21.88;52.94;102084.28;5007528;28;20600;-69
2023/08/10 10:36:12;;;;;;;4.28;1.52;;;;;;;21.87;53.50;102076.44;5007370;28;20386;-70
2023/08/10 10:38:46;;;;;;;5.60;1.73;;;;;;;21.86;53.18;102080.06;5007227;28;20040;-71
2023/08/10 10:41:30;;;;;;;4.35;1.73;;;;;;;21.84;53.31;102071.38;5007134;28;20042;-70
2023/08/10 10:43:58;;;;;;;3.90;1.75;;;;;;;21.85;53.52;102078.38;5007739;28;20057;-70
2023/08/10 10:46:33;;;;;;;5.03;1.80;;;;;;;21.82;53.92;102078.59;5007407;28;20044;-69
2023/08/10 10:49:04;;;;;;;5.95;1.77;;;;;;;21.79;53.68;102081.50;5005042;28;20161;-69
2023/08/10 10:51:29;;;;;;;7.15;1.90;;;;;;;21.83;53.87;102075.84;5004546;28;20042;-70
2023/08/10 10:53:55;;;;;;;5.65;1.85;;;;;;;21.81;53.46;102067.16;5006150;28;20030;-69
2023/08/10 10:56:22;;;;;;;4.43;2.22;;;;;;;21.84;53.87;102060.75;5006761;28;20029;-71
2023/08/10 10:58:48;;;;;;;6.50;1.83;;;;;;;21.84;53.19;102066.94;5006953;28;20026;-72
2023/08/10 11:01:19;;;;;;;4.32;1.60;;;;;;;21.83;53.60;102061.75;5006834;28;20049;-70
2023/08/10 11:03:51;;;;;;;4.53;1.63;;;;;;;21.79;53.67;102069.06;5007120;28;20034;-71
2023/08/10 11:06:18;;;;;;;4.25;1.70;;;;;;;21.80;53.42;102068.13;5007017;28;20470;-71
2023/08/10 11:08:48;;;;;;;3.67;1.60;;;;;;;21.80;53.40;102061.97;5006795;28;20037;-67
2023/08/10 11:11:13;;;;;;;4.03;1.95;;;;;;;21.81;53.61;102064.50;5006855;28;20030;-68
2023/08/10 11:13:38;;;;;;;4.03;1.60;;;;;;;21.82;53.75;102070.66;5006389;28;20056;-70
2023/08/10 11:16:04;;;;;;;3.65;1.63;;;;;;;21.86;53.49;102061.50;5006879;28;20038;-69
2023/08/10 11:18:31;;;;;;;5.78;1.67;;;;;;;21.86;53.49;102057.03;5007264;28;20037;-67
2023/08/10 11:20:56;;;;;;;4.95;1.60;;;;;;;21.86;53.74;102057.03;5006602;28;20446;-69
2023/08/10 11:23:24;;;;;;;4.00;1.83;;;;;;;21.89;53.46;102059.44;5006811;28;20065;-70
2023/08/10 11:25:51;;;;;;;3.83;1.90;;;;;;;21.93;53.80;102052.91;5006552;28;20025;-69
2023/08/10 11:28:18;;;;;;;5.05;1.60;;;;;;;21.96;53.48;102054.50;5006500;28;20030;-70